Time;durP1;ratioP1;P1;durP2;ratioP2;P2;SDS_P1;SDS_P2;PMS_P1;PMS_P2;Temp;Humidity;BMP_temperature;BMP_pressure;BME280_temperature;BME280_humidity;BME280_pressure;Samples;Min_cycle;Max_cycle;Signal;HPM_P1;HPM_P2
2022/12/05 00:03:41;;;;;;;82.30;24.37;;;;;7.00;95903.00;;;;8333607;28;20566;-72
2022/12/05 00:07:44;;;;;;;194.23;27.17;;;;;6.80;95901.00;;;;8333601;28;20280;-71
2022/12/05 00:11:49;;;;;;;213.87;26.57;;;;;6.60;95912.00;;;;8333255;28;20193;-72
2022/12/05 00:16:24;;;;;;;219.20;26.90;;;;;6.40;95917.00;;;;8333599;28;20275;-72
2022/12/05 00:20:27;;;;;;;381.33;26.73;;;;;6.30;95923.00;;;;8332850;28;20198;-73
2022/12/05 00:24:30;;;;;;;271.83;26.90;;;;;6.20;95916.00;;;;8333094;28;20232;-73
2022/12/05 00:29:09;;;;;;;442.13;31.00;;;;;6.10;95922.00;;;;8333440;28;20204;-73
2022/12/05 00:33:12;;;;;;;266.13;26.53;;;;;6.10;95926.00;;;;8333223;28;20205;-73
2022/12/05 00:37:15;;;;;;;316.80;27.73;;;;;6.10;95931.00;;;;8333894;28;20194;-73
2022/12/05 00:41:19;;;;;;;153.50;22.50;;;;;6.10;95928.00;;;;8332222;28;20217;-73
2022/12/05 00:45:55;;;;;;;151.30;21.53;;;;;6.10;95933.00;;;;8332180;28;20193;-73
2022/12/05 00:49:58;;;;;;;108.47;20.70;;;;;6.10;95934.00;;;;8332593;28;20599;-73
2022/12/05 00:54:04;;;;;;;85.60;18.47;;;;;6.00;95944.00;;;;8332444;28;20641;-73
2022/12/05 00:58:17;;;;;;;100.30;18.60;;;;;5.90;95944.00;;;;8333005;28;20201;-73
2022/12/05 01:02:54;;;;;;;101.83;18.60;;;;;5.90;95950.00;;;;8331994;28;20233;-74
2022/12/05 01:06:59;;;;;;;90.23;18.73;;;;;5.90;95945.00;;;;8331722;28;20635;-75
2022/12/05 01:11:03;;;;;;;84.97;17.77;;;;;5.90;95954.00;;;;8331839;28;20205;-75
2022/12/05 01:15:07;;;;;;;82.50;17.87;;;;;5.90;95963.00;;;;8332005;28;20596;-75
2022/12/05 01:19:14;;;;;;;98.00;18.23;;;;;5.80;95956.00;;;;8331594;28;20201;-75
2022/12/05 01:23:49;;;;;;;61.47;17.07;;;;;5.80;95961.00;;;;8331794;28;20217;-75
2022/12/05 01:27:52;;;;;;;64.83;15.97;;;;;5.80;95981.00;;;;8332608;28;20531;-75
2022/12/05 01:31:55;;;;;;;73.63;16.80;;;;;5.70;95990.00;;;;8332297;28;20213;-75
2022/12/05 01:35:58;;;;;;;64.67;16.63;;;;;5.70;95993.00;;;;8331617;28;20201;-75
2022/12/05 01:40:03;;;;;;;58.53;16.47;;;;;5.70;95988.00;;;;8330781;28;20199;-75
2022/12/05 01:44:44;;;;;;;52.80;15.07;;;;;5.70;95985.00;;;;8331712;28;20336;-75
2022/12/05 01:48:47;;;;;;;48.80;14.10;;;;;5.70;95991.00;;;;8331515;28;20198;-75
2022/12/05 01:52:50;;;;;;;47.37;14.03;;;;;5.70;95996.00;;;;8332004;28;20240;-75
2022/12/05 01:57:30;;;;;;;50.23;13.57;;;;;5.70;96008.00;;;;8330700;28;20198;-74
2022/12/05 02:01:34;;;;;;;43.90;13.83;;;;;5.60;96011.00;;;;8331161;28;20238;-74
2022/12/05 02:05:38;;;;;;;43.67;12.63;;;;;5.60;96010.00;;;;8330347;28;20222;-74
2022/12/05 02:09:41;;;;;;;54.47;13.40;;;;;5.60;96018.00;;;;8331369;28;20193;-74
2022/12/05 02:14:28;;;;;;;47.47;13.83;;;;;5.60;96019.00;;;;8335004;28;20193;-74
2022/12/05 02:18:47;;;;;;;43.93;13.03;;;;;5.60;96027.00;;;;8337893;28;20657;-74
2022/12/05 02:23:22;;;;;;;45.60;13.80;;;;;5.50;96026.00;;;;8336455;28;20229;-74
2022/12/05 02:28:02;;;;;;;43.37;12.93;;;;;5.60;96024.00;;;;8337447;28;20224;-74
2022/12/05 02:32:17;;;;;;;43.10;12.70;;;;;5.50;96033.00;;;;8336940;28;20255;-74
2022/12/05 02:36:25;;;;;;;49.83;13.17;;;;;5.50;96042.00;;;;8336276;28;20197;-74
2022/12/05 02:40:34;;;;;;;48.37;13.07;;;;;5.40;96046.00;;;;8336227;28;20197;-74
2022/12/05 02:44:43;;;;;;;51.50;13.33;;;;;5.50;96061.00;;;;8335759;28;20229;-74
2022/12/05 02:48:49;;;;;;;50.20;14.20;;;;;5.50;96067.00;;;;8336397;28;20193;-74
2022/12/05 02:53:21;;;;;;;51.23;13.80;;;;;5.50;96056.00;;;;8335743;28;20205;-74
2022/12/05 02:57:24;;;;;;;53.23;12.93;;;;;5.50;96078.00;;;;8335438;28;20205;-74
2022/12/05 03:01:31;;;;;;;45.20;13.10;;;;;5.50;96084.00;;;;8368174;22;20687;-74
2022/12/05 03:05:40;;;;;;;53.17;13.43;;;;;5.40;96081.00;;;;8403628;28;20199;-74
2022/12/05 03:09:47;;;;;;;54.23;13.50;;;;;5.50;96070.00;;;;8396924;28;20576;-75
2022/12/05 03:13:54;;;;;;;54.67;14.43;;;;;5.50;96048.00;;;;8421181;28;20187;-75
2022/12/05 03:18:03;;;;;;;37.77;11.53;;;;;5.50;96090.00;;;;8419890;28;20221;-72
2022/12/05 03:22:15;;;;;;;43.87;12.33;;;;;5.40;96085.00;;;;8408189;28;20243;-74
2022/12/05 03:26:41;;;;;;;34.17;10.73;;;;;5.30;96074.00;;;;8402317;28;20207;-74
2022/12/05 03:30:47;;;;;;;32.13;10.13;;;;;5.30;96079.00;;;;8411218;28;20192;-72
2022/12/05 03:35:01;;;;;;;31.70;9.63;;;;;5.30;96097.00;;;;8412711;28;20199;-74
2022/12/05 03:39:10;;;;;;;32.27;9.73;;;;;5.20;96095.00;;;;8399847;28;20340;-72
2022/12/05 03:43:18;;;;;;;24.80;8.37;;;;;5.20;96100.00;;;;8406509;28;20273;-72
2022/12/05 03:47:27;;;;;;;23.97;8.77;;;;;5.10;96090.00;;;;8412623;28;20200;-73
2022/12/05 03:51:35;;;;;;;19.77;7.20;;;;;5.10;96089.00;;;;8405839;28;20196;-73
2022/12/05 03:55:41;;;;;;;27.70;7.70;;;;;5.10;96094.00;;;;8409810;28;20192;-72
2022/12/05 03:59:50;;;;;;;31.73;9.60;;;;;5.00;96100.00;;;;8407854;28;20222;-72
2022/12/05 04:03:57;;;;;;;30.60;9.70;;;;;5.00;96087.00;;;;8416433;28;20238;-74
2022/12/05 04:08:04;;;;;;;30.77;9.73;;;;;5.00;96107.00;;;;8411477;28;20855;-73
2022/12/05 04:12:15;;;;;;;34.10;10.60;;;;;5.00;96122.00;;;;8407642;28;20192;-73
2022/12/05 04:29:41;;;;;;;32.90;9.50;;;;;5.00;96142.00;;;;8401068;28;20358;-72
2022/12/05 04:33:46;;;;;;;37.80;11.23;;;;;5.00;96145.00;;;;8415787;28;20195;-75
2022/12/05 04:37:54;;;;;;;39.47;10.90;;;;;5.10;96133.00;;;;8407345;28;20691;-72
2022/12/05 04:42:00;;;;;;;36.87;10.90;;;;;5.10;96150.00;;;;8404760;28;20252;-74
2022/12/05 04:46:07;;;;;;;33.83;10.53;;;;;5.10;96149.00;;;;8413614;28;20227;-73
2022/12/05 04:50:13;;;;;;;33.63;10.27;;;;;5.00;96164.00;;;;8419076;28;20243;-74
2022/12/05 04:54:23;;;;;;;38.27;10.20;;;;;5.00;96165.00;;;;8408705;28;20598;-73
2022/12/05 04:58:28;;;;;;;38.07;10.77;;;;;4.90;96157.00;;;;8400810;28;20195;-73
2022/12/05 05:02:37;;;;;;;38.30;11.20;;;;;4.90;96168.00;;;;8410035;28;20231;-75
2022/12/05 05:06:42;;;;;;;37.37;10.33;;;;;5.00;96170.00;;;;8406859;28;21471;-74
2022/12/05 05:11:24;;;;;;;48.07;12.83;;;;;4.90;96165.00;;;;8401154;28;20611;-76
2022/12/05 05:15:28;;;;;;;60.60;14.27;;;;;4.90;96177.00;;;;8404960;28;20196;-74
2022/12/05 05:19:33;;;;;;;114.03;18.47;;;;;5.00;96168.00;;;;8400508;28;20195;-75
2022/12/05 05:23:36;;;;;;;56.60;13.70;;;;;5.00;96182.00;;;;8384702;28;20232;-73
2022/12/05 05:27:39;;;;;;;60.00;14.07;;;;;5.00;96176.00;;;;8407455;28;21121;-72
2022/12/05 05:31:43;;;;;;;61.53;15.00;;;;;5.00;96176.00;;;;8407106;28;20218;-72
2022/12/05 05:35:48;;;;;;;62.80;15.33;;;;;5.00;96188.00;;;;8383919;28;20203;-73
2022/12/05 05:39:51;;;;;;;51.93;12.83;;;;;5.00;96183.00;;;;8375032;28;20771;-73
2022/12/05 05:43:55;;;;;;;47.03;13.23;;;;;5.00;96193.00;;;;8396361;28;20285;-73
2022/12/05 05:48:02;;;;;;;60.70;14.43;;;;;5.00;96201.00;;;;8405367;28;20196;-74
2022/12/05 05:52:11;;;;;;;61.13;14.13;;;;;5.00;96193.00;;;;8401150;28;20195;-73
2022/12/05 05:56:16;;;;;;;65.63;14.40;;;;;4.90;96199.00;;;;8420707;28;20192;-73
2022/12/05 06:00:24;;;;;;;60.87;13.47;;;;;4.90;96193.00;;;;8414307;28;20212;-73
2022/12/05 06:04:27;;;;;;;72.77;15.30;;;;;4.90;96192.00;;;;8402502;28;20234;-74
2022/12/05 06:08:32;;;;;;;56.43;13.53;;;;;5.00;96191.00;;;;8412298;28;20257;-74
2022/12/05 06:12:35;;;;;;;62.60;13.67;;;;;4.90;96190.00;;;;8418907;28;20556;-74
2022/12/05 06:16:38;;;;;;;66.90;13.97;;;;;4.90;96195.00;;;;8412994;28;20277;-73
2022/12/05 06:20:52;;;;;;;69.93;14.47;;;;;4.90;96207.00;;;;8414943;28;20877;-74
2022/12/05 06:24:56;;;;;;;68.80;14.03;;;;;4.90;96203.00;;;;8421228;28;20230;-73
2022/12/05 06:29:00;;;;;;;61.67;13.60;;;;;4.90;96210.00;;;;8417945;28;20212;-73
2022/12/05 06:33:03;;;;;;;61.63;13.60;;;;;4.90;96217.00;;;;8419310;28;20195;-73
2022/12/05 06:37:06;;;;;;;56.97;13.23;;;;;4.90;96220.00;;;;8421579;28;20617;-73
2022/12/05 06:41:14;;;;;;;67.03;15.20;;;;;4.90;96232.00;;;;8413895;28;20229;-73
2022/12/05 06:45:17;;;;;;;69.87;14.77;;;;;5.00;96236.00;;;;8403846;28;20276;-74
2022/12/05 06:49:21;;;;;;;60.47;13.77;;;;;5.00;96238.00;;;;8403194;28;20196;-73
2022/12/05 06:53:31;;;;;;;68.27;14.47;;;;;4.90;96247.00;;;;8400332;28;20544;-74
2022/12/05 06:57:36;;;;;;;61.43;14.07;;;;;4.90;96251.00;;;;8418215;28;20218;-72
2022/12/05 07:01:39;;;;;;;73.47;14.80;;;;;4.90;96253.00;;;;8413582;28;20227;-73
2022/12/05 07:05:43;;;;;;;67.70;14.57;;;;;4.90;96256.00;;;;8390643;28;20580;-74
2022/12/05 07:09:47;;;;;;;62.00;13.97;;;;;4.80;96272.00;;;;8403558;28;20196;-72
2022/12/05 07:13:53;;;;;;;68.07;13.77;;;;;4.80;96271.00;;;;8404517;28;20231;-72
2022/12/05 07:17:58;;;;;;;70.97;15.37;;;;;4.70;96283.00;;;;8412903;28;20199;-72
2022/12/05 07:22:01;;;;;;;77.43;14.57;;;;;4.70;96282.00;;;;8400428;28;20200;-73
2022/12/05 07:26:06;;;;;;;84.07;15.33;;;;;4.70;96288.00;;;;8414165;28;20231;-73
2022/12/05 07:30:11;;;;;;;94.90;16.67;;;;;4.60;96294.00;;;;8408114;28;20195;-73
2022/12/05 07:34:14;;;;;;;78.67;16.23;;;;;4.50;96291.00;;;;8420731;28;20648;-74
2022/12/05 07:38:17;;;;;;;72.13;15.63;;;;;4.50;96296.00;;;;8418186;28;20614;-73
2022/12/05 07:42:21;;;;;;;56.17;12.67;;;;;4.40;96309.00;;;;8418955;28;20706;-74
2022/12/05 07:46:29;;;;;;;258.00;35.40;;;;;4.40;96320.00;;;;8435341;28;20224;-71
2022/12/05 07:50:37;;;;;;;89.70;17.00;;;;;4.30;96316.00;;;;8395483;28;20215;-72
2022/12/05 07:54:40;;;;;;;256.03;33.83;;;;;4.30;96327.00;;;;8405172;28;20664;-72
2022/12/05 07:58:44;;;;;;;85.40;15.47;;;;;4.40;96323.00;;;;8401528;28;20199;-72
2022/12/05 08:02:49;;;;;;;104.87;17.00;;;;;4.50;96337.00;;;;8402525;28;20360;-72
2022/12/05 08:06:57;;;;;;;83.73;15.50;;;;;4.60;96344.00;;;;8385881;28;20603;-72
2022/12/05 08:11:03;;;;;;;91.23;16.30;;;;;4.60;96352.00;;;;8404022;28;20210;-72
2022/12/05 08:15:08;;;;;;;57.07;14.77;;;;;4.70;96347.00;;;;8418157;28;20638;-71
2022/12/05 08:19:14;;;;;;;79.73;15.43;;;;;4.80;96357.00;;;;8415354;28;20450;-72
2022/12/05 08:23:17;;;;;;;75.63;15.30;;;;;4.80;96353.00;;;;8418225;28;21027;-72
2022/12/05 08:27:20;;;;;;;61.47;14.53;;;;;4.90;96364.00;;;;8417297;28;20760;-73
2022/12/05 08:31:25;;;;;;;66.40;14.07;;;;;4.90;96363.00;;;;8419346;28;20199;-74
2022/12/05 08:35:32;;;;;;;81.30;15.33;;;;;5.00;96367.00;;;;8418562;28;20203;-73
2022/12/05 08:39:35;;;;;;;70.00;13.50;;;;;5.00;96373.00;;;;8418497;28;20278;-73
2022/12/05 08:43:41;;;;;;;76.47;15.30;;;;;5.00;96360.00;;;;8415919;28;20196;-73
2022/12/05 08:47:44;;;;;;;79.50;16.80;;;;;5.00;96373.00;;;;8405105;28;20921;-73
2022/12/05 08:51:49;;;;;;;58.07;15.13;;;;;5.10;96377.00;;;;8385764;28;20211;-72
2022/12/05 08:55:52;;;;;;;127.03;31.27;;;;;5.10;96374.00;;;;8420540;28;20207;-73
2022/12/05 08:59:55;;;;;;;98.90;25.93;;;;;5.20;96383.00;;;;8404030;28;20226;-73
2022/12/05 09:03:59;;;;;;;105.73;31.93;;;;;5.20;96384.00;;;;8403821;28;20227;-74
2022/12/05 09:08:03;;;;;;;204.73;85.63;;;;;5.30;96387.00;;;;8397189;28;20203;-73
2022/12/05 09:12:07;;;;;;;65.83;20.27;;;;;5.40;96381.00;;;;8398387;28;20196;-73
2022/12/05 09:16:12;;;;;;;77.73;21.80;;;;;5.40;96387.00;;;;8391618;28;20242;-73
2022/12/05 09:20:15;;;;;;;63.97;16.83;;;;;5.50;96384.00;;;;8393253;28;20286;-72
2022/12/05 09:24:20;;;;;;;70.23;16.37;;;;;5.60;96393.00;;;;8409529;28;20827;-73
2022/12/05 09:28:23;;;;;;;66.93;14.77;;;;;5.50;96401.00;;;;8410630;28;20203;-73
2022/12/05 09:32:27;;;;;;;68.53;14.93;;;;;5.50;96396.00;;;;8404376;28;20307;-73
2022/12/05 09:36:32;;;;;;;76.17;16.10;;;;;5.50;96399.00;;;;8410390;28;20546;-74
2022/12/05 09:40:41;;;;;;;68.63;16.77;;;;;5.50;96401.00;;;;8411711;28;20211;-75
2022/12/05 09:45:03;;;;;;;66.07;17.30;;;;;5.50;96391.00;;;;8407919;28;20250;-76
2022/12/05 09:49:10;;;;;;;93.70;33.77;;;;;5.50;96387.00;;;;8403581;28;20225;-75
2022/12/05 09:53:23;;;;;;;63.67;14.50;;;;;5.50;96388.00;;;;8420301;28;20245;-74
2022/12/05 09:57:35;;;;;;;69.50;22.13;;;;;5.60;96383.00;;;;8428759;28;20187;-75
2022/12/05 10:01:41;;;;;;;74.93;17.23;;;;;5.50;96373.00;;;;8403215;28;20596;-76
2022/12/05 10:05:50;;;;;;;73.23;19.27;;;;;5.50;96386.00;;;;8406409;28;20223;-78
2022/12/05 10:10:02;;;;;;;85.17;19.10;;;;;5.30;96392.00;;;;8398753;28;20207;-76
2022/12/05 10:14:14;;;;;;;86.90;18.77;;;;;5.30;96389.00;;;;8428480;28;20192;-77
2022/12/05 10:18:27;;;;;;;82.00;17.70;;;;;5.20;96389.00;;;;8426078;28;20591;-78
2022/12/05 10:22:43;;;;;;;101.40;17.40;;;;;5.00;96388.00;;;;8408950;28;20705;-76
2022/12/05 10:26:51;;;;;;;72.60;16.93;;;;;4.90;96381.00;;;;8417724;28;20218;-73
2022/12/05 10:30:58;;;;;;;74.60;16.20;;;;;4.80;96376.00;;;;8398843;28;20871;-71
2022/12/05 10:35:15;;;;;;;75.00;17.30;;;;;4.70;96381.00;;;;8411811;28;20282;-73
2022/12/05 10:39:18;;;;;;;79.30;17.77;;;;;4.40;96382.00;;;;8416622;28;20196;-72
2022/12/05 10:43:26;;;;;;;67.40;14.23;;;;;4.20;96381.00;;;;8410573;28;20606;-71
2022/12/05 10:47:32;;;;;;;72.67;17.20;;;;;4.20;96392.00;;;;8425291;28;20575;-73
2022/12/05 10:51:35;;;;;;;68.40;15.83;;;;;4.20;96384.00;;;;8411842;28;20258;-73
2022/12/05 10:55:42;;;;;;;68.23;16.87;;;;;4.20;96381.00;;;;8413619;28;20196;-73
2022/12/05 11:00:16;;;;;;;60.13;15.83;;;;;4.10;96375.00;;;;8412322;28;20234;-72
2022/12/05 11:04:28;;;;;;;53.93;14.40;;;;;4.00;96379.00;;;;8408894;28;20280;-73
2022/12/05 11:08:33;;;;;;;47.07;13.93;;;;;3.90;96369.00;;;;8425782;28;20200;-74
2022/12/05 11:12:58;;;;;;;46.30;13.40;;;;;3.90;96376.00;;;;8408012;28;20192;-72
2022/12/05 11:17:03;;;;;;;48.63;13.97;;;;;4.00;96369.00;;;;8405941;28;20211;-72
2022/12/05 11:21:13;;;;;;;61.13;15.20;;;;;3.90;96367.00;;;;8420172;28;20199;-72
2022/12/05 11:25:25;;;;;;;49.13;14.67;;;;;3.80;96370.00;;;;8412930;28;20218;-72
2022/12/05 11:29:31;;;;;;;40.03;13.47;;;;;3.80;96360.00;;;;8424257;28;20202;-72
2022/12/05 11:33:35;;;;;;;47.67;14.00;;;;;3.60;96366.00;;;;8410045;28;20211;-73
2022/12/05 11:37:44;;;;;;;39.70;14.10;;;;;3.60;96371.00;;;;8404824;28;20183;-74
2022/12/05 11:42:21;;;;;;;104.00;20.27;;;;;3.70;96367.00;;;;8398130;28;20259;-74
2022/12/05 11:46:34;;;;;;;40.67;13.77;;;;;3.80;96357.00;;;;8405686;28;20273;-74
2022/12/05 11:50:45;;;;;;;36.97;14.23;;;;;4.00;96352.00;;;;8402150;28;20280;-73
2022/12/05 11:55:10;;;;;;;38.17;13.43;;;;;4.10;96357.00;;;;8410607;28;20242;-75
2022/12/05 11:59:37;;;;;;;32.70;13.10;;;;;4.30;96362.00;;;;8404184;28;20369;-77
2022/12/05 12:04:24;;;;;;;40.17;13.70;;;;;4.40;96358.00;;;;8401050;28;20226;-76
2022/12/05 12:08:30;;;;;;;35.30;12.60;;;;;4.50;96358.00;;;;8408144;28;20254;-73
2022/12/05 12:12:44;;;;;;;34.17;11.73;;;;;4.60;96354.00;;;;8401441;28;20222;-74
2022/12/05 12:16:56;;;;;;;40.43;11.63;;;;;4.70;96355.00;;;;8401789;28;20249;-74
2022/12/05 12:21:15;;;;;;;28.80;11.50;;;;;4.80;96359.00;;;;8406668;28;20265;-75
2022/12/05 12:25:31;;;;;;;23.57;9.63;;;;;4.90;96356.00;;;;8424184;28;20220;-74
2022/12/05 12:29:49;;;;;;;32.93;10.10;;;;;5.00;96355.00;;;;8426556;28;20210;-75
2022/12/05 12:34:04;;;;;;;29.90;10.27;;;;;5.00;96350.00;;;;8416238;28;20195;-75
2022/12/05 12:38:43;;;;;;;26.43;9.57;;;;;5.10;96350.00;;;;8401516;28;20214;-74
2022/12/05 12:43:05;;;;;;;24.23;8.93;;;;;5.20;96342.00;;;;8409479;28;20208;-75
2022/12/05 12:47:16;;;;;;;22.80;9.33;;;;;5.30;96347.00;;;;8416876;28;20718;-75
2022/12/05 12:51:20;;;;;;;19.13;8.33;;;;;5.30;96349.00;;;;8416545;28;20568;-75
2022/12/05 12:55:31;;;;;;;19.70;9.10;;;;;5.10;96346.00;;;;8410566;28;20637;-76
2022/12/05 12:59:50;;;;;;;19.23;7.93;;;;;5.10;96355.00;;;;8412067;28;20204;-75
2022/12/05 13:04:03;;;;;;;15.93;7.17;;;;;5.00;96353.00;;;;8416739;28;20280;-74
2022/12/05 13:08:13;;;;;;;18.87;8.07;;;;;5.00;96342.00;;;;8413072;28;20275;-75
2022/12/05 13:12:23;;;;;;;21.30;8.60;;;;;5.10;96351.00;;;;8412270;28;20192;-74
2022/12/05 13:16:31;;;;;;;22.20;8.60;;;;;5.20;96346.00;;;;8424633;28;20778;-74
2022/12/05 13:20:36;;;;;;;24.80;8.33;;;;;5.30;96343.00;;;;8404690;28;20265;-74
2022/12/05 13:24:41;;;;;;;17.37;7.93;;;;;5.40;96348.00;;;;8411239;28;20199;-75
2022/12/05 13:28:53;;;;;;;23.03;8.80;;;;;5.40;96344.00;;;;8399408;28;20228;-76
2022/12/05 13:32:58;;;;;;;20.63;8.63;;;;;5.50;96349.00;;;;8401483;28;20199;-76
2022/12/05 13:46:07;;;;;;;22.40;8.17;;;;;5.60;96347.00;;;;8402069;28;20249;-76
2022/12/05 13:50:16;;;;;;;16.77;8.00;;;;;5.60;96343.00;;;;8410272;28;20191;-75
2022/12/05 13:54:24;;;;;;;17.50;7.73;;;;;5.60;96350.00;;;;8418834;28;20199;-76
2022/12/05 13:58:48;;;;;;;16.73;7.37;;;;;5.60;96348.00;;;;8411094;28;20202;-74
2022/12/05 14:02:53;;;;;;;16.30;7.53;;;;;5.60;96351.00;;;;8394610;28;20349;-76
2022/12/05 14:06:57;;;;;;;20.30;8.00;;;;;5.60;96357.00;;;;8411900;28;20256;-76
2022/12/05 14:11:10;;;;;;;20.33;8.00;;;;;5.50;96354.00;;;;8399377;28;20205;-76
2022/12/05 14:15:35;;;;;;;15.93;7.97;;;;;5.50;96357.00;;;;8411651;28;20212;-76
2022/12/05 14:20:03;;;;;;;21.67;8.23;;;;;5.40;96359.00;;;;8392081;28;20625;-76
2022/12/05 14:24:14;;;;;;;21.80;9.00;;;;;5.50;96355.00;;;;8421613;28;20221;-76
2022/12/05 14:28:37;;;;;;;24.00;9.40;;;;;5.50;96360.00;;;;8420110;28;20234;-76
2022/12/05 14:32:42;;;;;;;69.90;31.77;;;;;5.60;96356.00;;;;8405156;28;20701;-75
2022/12/05 14:36:55;;;;;;;23.87;10.47;;;;;5.60;96365.00;;;;8398844;28;20199;-76
2022/12/05 14:41:20;;;;;;;22.00;8.70;;;;;5.60;96355.00;;;;8404136;28;20636;-74
2022/12/05 14:45:29;;;;;;;26.97;13.33;;;;;5.50;96353.00;;;;8408635;28;20193;-75
2022/12/05 14:49:51;;;;;;;21.23;9.43;;;;;5.60;96337.00;;;;8411526;28;20292;-75
2022/12/05 14:53:55;;;;;;;22.33;9.97;;;;;5.60;96334.00;;;;8412117;28;20658;-75
2022/12/05 14:57:58;;;;;;;24.77;10.00;;;;;5.60;96332.00;;;;8412576;28;20258;-75
2022/12/05 15:02:04;;;;;;;23.03;9.87;;;;;5.60;96339.00;;;;8403964;28;20219;-75
2022/12/05 15:06:14;;;;;;;23.43;8.80;;;;;5.70;96349.00;;;;8411331;28;20760;-75
2022/12/05 15:10:23;;;;;;;23.80;9.60;;;;;5.70;96344.00;;;;8404366;28;20585;-75
2022/12/05 15:14:29;;;;;;;26.27;10.67;;;;;5.70;96346.00;;;;8419993;28;20203;-75
2022/12/05 15:18:40;;;;;;;29.40;11.27;;;;;5.80;96361.00;;;;8405686;28;20335;-75
2022/12/05 15:22:43;;;;;;;25.93;10.90;;;;;5.80;96368.00;;;;8406004;28;20698;-75
2022/12/05 15:26:48;;;;;;;40.93;15.70;;;;;5.80;96373.00;;;;8421132;28;20228;-75
2022/12/05 15:30:55;;;;;;;32.27;11.23;;;;;5.70;96378.00;;;;8405700;28;20290;-75
2022/12/05 15:35:05;;;;;;;25.90;10.27;;;;;5.70;96384.00;;;;8407632;28;20648;-74
2022/12/05 15:39:18;;;;;;;30.57;11.03;;;;;5.50;96389.00;;;;8416819;28;20222;-74
2022/12/05 15:43:31;;;;;;;29.37;11.20;;;;;5.50;96396.00;;;;8420115;28;20246;-74
2022/12/05 15:47:34;;;;;;;36.70;12.30;;;;;5.50;96407.00;;;;8419742;28;20228;-75
2022/12/05 15:51:38;;;;;;;33.10;12.70;;;;;5.50;96399.00;;;;8410658;28;20248;-75
2022/12/05 15:55:47;;;;;;;35.10;11.43;;;;;5.50;96407.00;;;;8409620;28;20973;-75
2022/12/05 15:59:55;;;;;;;36.07;11.33;;;;;5.50;96409.00;;;;8394765;28;20207;-75
2022/12/05 16:04:01;;;;;;;40.40;12.23;;;;;5.50;96415.00;;;;8409757;28;20227;-76
2022/12/05 16:08:08;;;;;;;39.10;12.43;;;;;5.50;96410.00;;;;8396961;28;20227;-76
2022/12/05 16:12:26;;;;;;;32.93;11.87;;;;;5.50;96420.00;;;;8400829;28;20203;-75
2022/12/05 16:16:32;;;;;;;33.20;11.03;;;;;5.60;96406.00;;;;8396718;28;20196;-77
2022/12/05 16:20:37;;;;;;;40.97;13.20;;;;;5.60;96401.00;;;;8408678;28;20222;-78
2022/12/05 16:24:42;;;;;;;36.17;12.70;;;;;5.60;96405.00;;;;8416688;28;20894;-78
2022/12/05 16:28:57;;;;;;;36.50;12.53;;;;;5.50;96399.00;;;;8417693;28;20231;-78
2022/12/05 16:33:03;;;;;;;37.90;11.60;;;;;5.50;96380.00;;;;8417292;28;20276;-80
2022/12/05 16:37:07;;;;;;;32.40;11.80;;;;;5.50;96382.00;;;;8417911;28;20207;-77
2022/12/05 16:41:14;;;;;;;40.77;10.67;;;;;5.50;96381.00;;;;8419628;28;20742;-76
2022/12/05 16:45:39;;;;;;;42.03;12.10;;;;;5.50;96379.00;;;;8419694;28;20207;-76
2022/12/05 16:49:45;;;;;;;40.43;12.57;;;;;5.40;96376.00;;;;8418456;28;20276;-77
2022/12/05 16:53:50;;;;;;;128.77;58.30;;;;;5.40;96384.00;;;;8419287;28;20286;-77
2022/12/05 16:57:55;;;;;;;44.33;14.00;;;;;5.40;96379.00;;;;8416705;28;20203;-77
2022/12/05 17:01:58;;;;;;;66.63;25.87;;;;;5.50;96387.00;;;;8417020;28;20227;-76
2022/12/05 17:06:02;;;;;;;116.77;28.90;;;;;5.50;96382.00;;;;8394789;28;20520;-76
2022/12/05 17:10:06;;;;;;;58.77;16.50;;;;;5.50;96388.00;;;;8402595;28;20217;-77
2022/12/05 17:14:13;;;;;;;62.03;20.07;;;;;5.50;96397.00;;;;8413465;28;20244;-76
2022/12/05 17:18:19;;;;;;;67.73;26.40;;;;;5.50;96397.00;;;;8397803;28;20242;-78
2022/12/05 17:22:24;;;;;;;69.33;23.70;;;;;5.60;96394.00;;;;8406953;28;20286;-77
2022/12/05 17:26:27;;;;;;;114.40;51.03;;;;;5.60;96402.00;;;;8406958;28;20774;-77
2022/12/05 17:30:33;;;;;;;74.70;22.60;;;;;5.60;96416.00;;;;8408286;28;20231;-77
2022/12/05 17:34:36;;;;;;;64.73;20.53;;;;;5.60;96402.00;;;;8413034;28;20196;-77
2022/12/05 17:38:39;;;;;;;80.27;22.70;;;;;5.50;96399.00;;;;8416491;28;20819;-77
2022/12/05 17:42:43;;;;;;;84.17;21.33;;;;;5.50;96397.00;;;;8414671;28;20906;-77
2022/12/05 17:46:48;;;;;;;66.17;18.37;;;;;5.60;96395.00;;;;8420088;28;20213;-76
2022/12/05 17:50:51;;;;;;;70.20;17.80;;;;;5.60;96394.00;;;;8406502;28;20294;-76
2022/12/05 17:54:54;;;;;;;69.57;17.37;;;;;5.60;96399.00;;;;8418159;28;20733;-76
2022/12/05 17:58:58;;;;;;;53.33;16.93;;;;;5.60;96395.00;;;;8420553;28;20202;-76
2022/12/05 18:03:12;;;;;;;69.77;19.97;;;;;5.70;96400.00;;;;8416662;28;20231;-76
2022/12/05 18:07:15;;;;;;;58.33;18.07;;;;;5.60;96397.00;;;;8415832;28;20226;-75
2022/12/05 18:11:18;;;;;;;44.40;15.43;;;;;5.60;96401.00;;;;8416908;28;20204;-80
2022/12/05 18:15:22;;;;;;;35.23;13.40;;;;;5.60;96409.00;;;;8412048;28;20203;-81
2022/12/05 18:19:26;;;;;;;45.30;14.33;;;;;5.60;96410.00;;;;8420203;28;20199;-81
2022/12/05 18:23:29;;;;;;;46.10;14.10;;;;;5.60;96424.00;;;;8416533;28;20552;-80
2022/12/05 18:27:34;;;;;;;45.97;14.70;;;;;5.70;96417.00;;;;8396879;28;20281;-80
2022/12/05 18:31:40;;;;;;;36.70;13.53;;;;;5.60;96425.00;;;;8406019;28;20241;-80
2022/12/05 18:35:45;;;;;;;45.30;13.53;;;;;5.60;96424.00;;;;8408614;28;20195;-79
2022/12/05 18:39:48;;;;;;;51.60;19.40;;;;;5.60;96431.00;;;;8404752;28;20212;-79
2022/12/05 18:43:51;;;;;;;50.03;15.50;;;;;5.70;96435.00;;;;8410820;28;20215;-80
2022/12/05 18:47:54;;;;;;;47.13;14.33;;;;;5.60;96434.00;;;;8413810;28;21178;-80
2022/12/05 18:52:21;;;;;;;39.93;13.40;;;;;5.60;96425.00;;;;8405664;28;20553;-81
2022/12/05 18:56:26;;;;;;;28.00;11.03;;;;;5.60;96429.00;;;;8415065;28;20211;-80
2022/12/05 19:00:30;;;;;;;31.70;10.53;;;;;5.50;96422.00;;;;8409736;28;20226;-84
2022/12/05 19:04:33;;;;;;;29.43;9.63;;;;;5.50;96420.00;;;;8408632;28;20948;-81
2022/12/05 19:08:38;;;;;;;22.57;9.17;;;;;5.50;96420.00;;;;8408434;28;20223;-82
2022/12/05 19:12:41;;;;;;;22.03;8.73;;;;;5.40;96428.00;;;;8404277;28;20687;-80
2022/12/05 19:16:46;;;;;;;20.90;7.13;;;;;5.30;96435.00;;;;8413020;28;20994;-80
2022/12/05 19:20:50;;;;;;;18.17;7.20;;;;;5.30;96427.00;;;;8418788;28;20229;-80
2022/12/05 19:24:55;;;;;;;22.07;7.87;;;;;5.20;96418.00;;;;8407799;28;20208;-77
2022/12/05 19:28:59;;;;;;;17.07;7.00;;;;;5.20;96411.00;;;;8407327;28;20235;-76
2022/12/05 19:33:02;;;;;;;19.67;7.17;;;;;5.20;96417.00;;;;8415765;28;20221;-76
2022/12/05 19:37:05;;;;;;;21.03;7.53;;;;;5.20;96423.00;;;;8409956;28;20214;-77
2022/12/05 19:41:11;;;;;;;18.03;7.33;;;;;5.30;96424.00;;;;8412940;28;20292;-76
2022/12/05 19:45:15;;;;;;;18.13;8.20;;;;;5.30;96404.00;;;;8400095;28;20253;-75
2022/12/05 19:49:21;;;;;;;25.60;8.70;;;;;5.30;96400.00;;;;8411520;28;20259;-76
2022/12/05 19:53:25;;;;;;;23.07;8.77;;;;;5.30;96407.00;;;;8408265;28;20233;-76
2022/12/05 19:57:30;;;;;;;21.40;9.00;;;;;5.30;96409.00;;;;8402324;28;20196;-75
2022/12/05 20:01:34;;;;;;;18.40;8.07;;;;;5.30;96401.00;;;;8408260;28;20260;-75
2022/12/05 20:05:37;;;;;;;17.00;7.10;;;;;5.20;96399.00;;;;8404354;28;20242;-75
2022/12/05 20:09:40;;;;;;;16.00;7.90;;;;;5.20;96397.00;;;;8402185;28;20230;-75
2022/12/05 20:13:45;;;;;;;17.23;7.90;;;;;5.10;96394.00;;;;8409840;28;20201;-76
2022/12/05 20:17:50;;;;;;;16.53;7.83;;;;;5.10;96398.00;;;;8408583;28;20909;-76
2022/12/05 20:21:55;;;;;;;14.87;7.03;;;;;5.10;96399.00;;;;8410473;28;20599;-75
2022/12/05 20:26:02;;;;;;;17.27;7.23;;;;;5.00;96397.00;;;;8413070;28;20199;-75
2022/12/05 20:30:08;;;;;;;16.50;7.50;;;;;5.00;96399.00;;;;8398796;28;20212;-75
2022/12/05 20:34:13;;;;;;;18.40;8.17;;;;;5.00;96401.00;;;;8411619;28;20592;-75
2022/12/05 20:38:17;;;;;;;17.43;7.83;;;;;5.10;96415.00;;;;8415485;28;20222;-76
2022/12/05 20:42:20;;;;;;;17.50;7.67;;;;;5.10;96411.00;;;;8415063;28;20758;-76
2022/12/05 20:46:25;;;;;;;18.80;7.83;;;;;5.20;96422.00;;;;8412275;28;20348;-76
2022/12/05 20:50:28;;;;;;;15.07;7.30;;;;;5.20;96430.00;;;;8413220;28;20302;-76
2022/12/05 20:54:32;;;;;;;20.27;7.67;;;;;5.10;96417.00;;;;8417430;28;20219;-76